createdAt,value
2019-04-28T00:01:17.756Z,63.00
2019-04-28T00:03:51.651Z,63.00
2019-04-28T00:06:25.549Z,63.10
2019-04-28T00:08:59.307Z,63.20
2019-04-28T00:11:33.096Z,63.20
2019-04-28T00:14:08.512Z,63.10
2019-04-28T00:16:42.355Z,63.20
2019-04-28T00:19:15.976Z,63.30
2019-04-28T00:21:51.583Z,63.30
2019-04-28T00:24:25.493Z,63.40
2019-04-28T00:26:59.248Z,63.40
2019-04-28T00:29:40.781Z,63.50
2019-04-28T00:32:08.428Z,63.40
2019-04-28T00:34:42.144Z,63.50
2019-04-28T00:37:15.802Z,63.70
2019-04-28T00:39:50.948Z,63.80
2019-04-28T00:42:25.025Z,63.90
2019-04-28T00:44:58.895Z,64.00
2019-04-28T00:47:32.535Z,64.00
2019-04-28T00:50:07.053Z,63.90
2019-04-28T00:52:41.871Z,64.20
2019-04-28T00:55:15.653Z,64.30
2019-04-28T00:57:50.944Z,64.40
2019-04-28T01:00:24.789Z,64.40
2019-04-28T01:02:58.545Z,64.40
2019-04-28T01:05:32.334Z,64.60
2019-04-28T01:08:06.112Z,64.70
2019-04-28T01:10:41.007Z,64.80
2019-04-28T01:13:14.900Z,64.80
2019-04-28T01:15:49.646Z,64.80
2019-04-28T01:18:23.777Z,64.70
2019-04-28T01:20:59.149Z,64.70
2019-04-28T01:23:33.009Z,64.80
2019-04-28T01:26:06.754Z,64.90
2019-04-28T01:28:40.391Z,65.00
2019-04-28T01:31:14.202Z,65.00
2019-04-28T01:33:47.951Z,65.10
2019-04-28T01:36:21.806Z,65.00
2019-04-28T01:38:55.615Z,65.00
2019-04-28T01:41:29.717Z,65.00
2019-04-28T01:44:03.888Z,65.10
2019-04-28T01:46:39.725Z,65.20
2019-04-28T01:49:13.307Z,65.20
2019-04-28T01:51:57.071Z,65.30
2019-04-28T01:54:30.833Z,65.30
2019-04-28T01:57:04.553Z,65.40
2019-04-28T01:59:39.747Z,65.40
2019-04-28T02:02:13.838Z,65.30
2019-04-28T02:04:47.640Z,65.40
2019-04-28T02:07:21.371Z,65.60
2019-04-28T02:09:55.113Z,65.50
2019-04-28T02:12:30.413Z,65.40
2019-04-28T02:15:04.528Z,65.70
2019-04-28T02:17:40.002Z,65.90
2019-04-28T02:20:13.902Z,66.00
2019-04-28T02:22:47.745Z,66.10
2019-04-28T02:25:21.534Z,66.30
2019-04-28T02:27:57.112Z,66.30
2019-04-28T02:30:44.430Z,66.10
2019-04-28T02:33:06.042Z,66.10
2019-04-28T02:35:41.878Z,66.20
2019-04-28T02:38:15.124Z,66.20
2019-04-28T02:40:50.321Z,66.20
2019-04-28T02:43:24.088Z,66.30
2019-04-28T02:46:00.554Z,66.30
2019-04-28T02:48:33.545Z,66.50
2019-04-28T02:51:07.357Z,66.50
2019-04-28T02:53:41.070Z,66.60
2019-04-28T02:56:14.756Z,66.40
2019-04-28T02:58:51.077Z,66.40
2019-04-28T03:01:26.622Z,66.40
2019-04-28T03:04:00.347Z,66.30
2019-04-28T03:06:34.302Z,66.30
2019-04-28T03:09:10.592Z,66.20
2019-04-28T03:11:43.822Z,66.40
2019-04-28T03:14:17.652Z,66.50
2019-04-28T03:16:51.383Z,66.40
2019-04-28T03:19:25.085Z,66.60
2019-04-28T03:22:01.386Z,66.60
2019-04-28T03:24:34.197Z,66.60
2019-04-28T03:27:10.684Z,66.70
2019-04-28T03:29:43.259Z,66.60
2019-04-28T03:32:35.900Z,66.50
2019-04-28T03:34:54.278Z,66.50
2019-04-28T03:37:28.048Z,66.50
2019-04-28T03:40:01.761Z,66.60
2019-04-28T03:42:35.516Z,66.70
2019-04-28T03:45:11.292Z,66.80
2019-04-28T03:47:44.760Z,66.80
2019-04-28T03:50:20.184Z,66.70
2019-04-28T03:52:54.054Z,66.70
2019-04-28T03:55:27.959Z,66.70
2019-04-28T03:58:01.649Z,66.80
2019-04-28T04:00:35.441Z,66.70
2019-04-28T04:03:10.975Z,66.70
2019-04-28T04:05:44.507Z,66.60
2019-04-28T04:08:20.754Z,66.70
2019-04-28T04:10:53.717Z,66.90
2019-04-28T04:13:32.644Z,67.00
2019-04-28T04:16:02.860Z,67.00
2019-04-28T04:18:36.591Z,67.10
2019-04-28T04:21:11.321Z,67.40
2019-04-28T04:23:45.457Z,67.40
2019-04-28T04:26:21.342Z,67.40
2019-04-28T04:28:54.753Z,67.40
2019-04-28T04:31:31.500Z,67.50
2019-04-28T04:34:04.008Z,67.50
2019-04-28T04:36:37.741Z,67.50
2019-04-28T04:39:11.421Z,67.70
2019-04-28T04:41:45.151Z,67.50
2019-04-28T04:44:21.087Z,67.40
2019-04-28T04:46:54.233Z,67.40
2019-04-28T04:49:31.355Z,67.40
2019-04-28T04:52:03.126Z,67.40
2019-04-28T04:54:36.960Z,67.30
2019-04-28T04:57:11.180Z,67.20
2019-04-28T04:59:44.916Z,67.00
2019-04-28T05:02:26.749Z,66.90
2019-04-28T05:04:54.126Z,67.00
2019-04-28T05:07:29.544Z,66.90
2019-04-28T05:10:04.130Z,66.80
2019-04-28T05:12:37.903Z,66.90
2019-04-28T05:15:11.844Z,66.70
2019-04-28T05:17:45.682Z,66.60
2019-04-28T05:20:20.160Z,66.50
2019-04-28T05:22:54.017Z,66.60
2019-04-28T05:25:30.978Z,66.70
2019-04-28T05:28:03.151Z,67.00
2019-04-28T05:30:39.756Z,67.00
2019-04-28T05:33:12.446Z,67.20
2019-04-28T05:35:46.080Z,67.30
2019-04-28T05:38:20.142Z,67.30
2019-04-28T05:40:54.167Z,67.40
2019-04-28T05:43:29.489Z,67.40
2019-04-28T05:46:03.234Z,67.30
2019-04-28T05:48:36.995Z,67.30
2019-04-28T05:51:10.705Z,67.20
2019-04-28T05:53:44.439Z,67.00
2019-04-28T05:56:18.050Z,67.00
2019-04-28T05:58:51.917Z,67.00
2019-04-28T06:01:25.537Z,67.00
2019-04-28T06:04:00.903Z,67.00
2019-04-28T06:06:34.468Z,67.00
2019-04-28T06:09:10.157Z,67.10
2019-04-28T06:11:43.722Z,67.20
2019-04-28T06:14:17.353Z,67.30
2019-04-28T06:16:51.648Z,67.40
2019-04-28T06:19:25.295Z,67.40
2019-04-28T06:21:58.922Z,67.50
2019-04-28T06:24:32.618Z,67.80
2019-04-28T06:27:06.328Z,67.80
2019-04-28T06:29:40.001Z,68.10
2019-04-28T06:32:13.737Z,68.20
2019-04-28T06:34:47.557Z,68.10
2019-04-28T06:37:21.282Z,68.50
2019-04-28T06:39:55.043Z,68.40
2019-04-28T06:42:28.753Z,68.20
2019-04-28T06:45:02.453Z,68.30
2019-04-28T06:47:36.087Z,68.10
2019-04-28T06:50:10.080Z,67.80
2019-04-28T06:52:43.752Z,67.80
2019-04-28T06:55:17.630Z,67.40
2019-04-28T06:57:51.410Z,67.20
2019-04-28T07:00:25.057Z,67.20
2019-04-28T07:02:58.865Z,67.40
2019-04-28T07:05:32.528Z,67.40
2019-04-28T07:08:06.233Z,67.50
2019-04-28T07:10:39.896Z,67.50
2019-04-28T07:13:13.614Z,67.40
2019-04-28T07:15:47.321Z,67.30
2019-04-28T07:18:20.925Z,67.20
2019-04-28T07:20:54.838Z,67.00
2019-04-28T07:23:28.516Z,66.80
2019-04-28T07:26:02.089Z,66.90
2019-04-28T07:28:35.821Z,67.00
2019-04-28T07:31:09.454Z,67.00
2019-04-28T07:33:43.194Z,67.00
2019-04-28T07:36:16.888Z,66.90
2019-04-28T07:38:50.719Z,67.10
2019-04-28T07:41:24.520Z,67.00
2019-04-28T07:43:58.230Z,66.80
2019-04-28T07:46:31.855Z,66.80
2019-04-28T07:49:05.648Z,66.80
2019-04-28T07:51:39.364Z,66.40
2019-04-28T07:54:12.986Z,66.20
2019-04-28T07:56:46.686Z,66.30
2019-04-28T07:59:20.437Z,66.20
2019-04-28T08:01:54.074Z,66.30
2019-04-28T08:04:27.799Z,66.20
2019-04-28T08:07:01.510Z,65.90
2019-04-28T08:09:35.256Z,65.80
2019-04-28T08:12:09.029Z,66.10
2019-04-28T08:14:42.781Z,66.10
2019-04-28T08:17:16.392Z,66.00
2019-04-28T08:19:50.488Z,65.80
2019-04-28T08:22:24.264Z,65.60
2019-04-28T08:24:57.945Z,65.20
2019-04-28T08:27:31.670Z,65.10
2019-04-28T08:30:05.665Z,65.10
2019-04-28T08:32:39.383Z,65.10
2019-04-28T08:35:13.317Z,64.90
2019-04-28T08:37:47.072Z,64.70
2019-04-28T08:40:20.769Z,64.50
2019-04-28T08:42:54.466Z,64.60
2019-04-28T08:45:28.143Z,64.70
2019-04-28T08:48:02.139Z,64.60
2019-04-28T08:50:35.777Z,64.30
2019-04-28T08:53:09.449Z,64.30
2019-04-28T08:55:43.086Z,64.20
2019-04-28T08:58:17.108Z,65.30
2019-04-28T09:00:50.833Z,64.60
2019-04-28T09:03:24.535Z,64.30
2019-04-28T09:05:58.159Z,64.10
2019-04-28T09:08:31.837Z,64.10
2019-04-28T09:11:05.612Z,63.90
2019-04-28T09:13:39.316Z,63.80
2019-04-28T09:16:13.261Z,63.60
2019-04-28T09:18:47.087Z,63.70
2019-04-28T09:21:20.910Z,63.80
2019-04-28T09:23:54.626Z,63.80
2019-04-28T09:26:28.243Z,63.90
2019-04-28T09:29:02.049Z,63.70
2019-04-28T09:31:35.666Z,63.50
2019-04-28T09:34:09.417Z,63.50
2019-04-28T09:36:43.129Z,63.80
2019-04-28T09:39:16.837Z,64.00
2019-04-28T09:41:50.558Z,64.00
2019-04-28T09:44:24.215Z,63.70
2019-04-28T09:46:57.928Z,63.60
2019-04-28T09:49:31.777Z,63.80
2019-04-28T09:52:05.563Z,63.70
2019-04-28T09:54:39.242Z,63.40
2019-04-28T09:57:12.995Z,63.40
2019-04-28T09:59:46.936Z,63.50
2019-04-28T10:02:20.706Z,63.60
2019-04-28T10:04:54.413Z,63.60
2019-04-28T10:07:28.201Z,63.60
2019-04-28T10:10:01.959Z,63.90
2019-04-28T10:12:35.713Z,63.80
2019-04-28T10:15:09.801Z,63.80
2019-04-28T10:17:43.592Z,63.80
2019-04-28T10:20:17.865Z,63.90
2019-04-28T10:22:51.741Z,63.60
2019-04-28T10:25:25.446Z,63.70
2019-04-28T10:27:59.760Z,63.80
2019-04-28T10:30:33.606Z,64.00
2019-04-28T10:33:07.306Z,64.00
2019-04-28T10:35:40.982Z,63.90
2019-04-28T10:38:14.759Z,64.00
2019-04-28T10:40:48.574Z,64.10
2019-04-28T10:43:22.474Z,64.70
2019-04-28T10:45:56.355Z,64.60
2019-04-28T10:48:30.114Z,64.60
2019-04-28T10:51:04.217Z,64.80
2019-04-28T10:53:37.932Z,64.70
2019-04-28T10:56:11.678Z,64.70
2019-04-28T10:58:45.563Z,64.50
2019-04-28T11:01:19.357Z,64.40
2019-04-28T11:03:53.101Z,64.30
2019-04-28T11:06:26.815Z,64.50
2019-04-28T11:09:00.616Z,64.20
2019-04-28T11:11:34.588Z,64.20
2019-04-28T11:14:08.339Z,64.70
2019-04-28T11:16:42.155Z,64.70
2019-04-28T11:19:15.815Z,64.70
2019-04-28T11:21:49.581Z,64.60
2019-04-28T11:24:23.288Z,65.00
2019-04-28T11:26:57.092Z,64.60
2019-04-28T11:29:30.756Z,65.10
2019-04-28T11:32:04.649Z,64.60
2019-04-28T11:34:39.322Z,64.20
2019-04-28T11:37:13.125Z,64.40
2019-04-28T11:39:46.861Z,64.20
2019-04-28T11:42:20.705Z,63.30
2019-04-28T11:44:54.491Z,63.10
2019-04-28T11:47:28.104Z,63.10
2019-04-28T11:50:01.944Z,63.10
2019-04-28T11:52:35.600Z,63.40
2019-04-28T11:55:09.455Z,62.40
2019-04-28T11:57:43.178Z,62.10
2019-04-28T12:00:16.911Z,61.50
2019-04-28T12:02:50.578Z,61.30
2019-04-28T12:05:34.046Z,62.00
2019-04-28T12:07:59.532Z,62.20
2019-04-28T12:10:33.293Z,61.60
2019-04-28T12:13:07.003Z,60.50
2019-04-28T12:15:40.826Z,59.70
2019-04-28T12:18:14.478Z,59.40
2019-04-28T12:22:59.916Z,59.00
2019-04-28T12:25:33.618Z,59.10
2019-04-28T12:28:07.398Z,59.10
2019-04-28T12:30:41.015Z,58.70
2019-04-28T12:33:14.689Z,58.60
2019-04-28T12:35:48.408Z,58.00
2019-04-28T12:38:22.231Z,57.90
2019-04-28T12:40:56.018Z,58.10
2019-04-28T12:43:29.836Z,58.10
2019-04-28T12:46:03.685Z,57.00
2019-04-28T12:48:37.370Z,56.80
2019-04-28T12:51:11.095Z,57.40
2019-04-28T12:53:44.696Z,56.80
2019-04-28T12:56:18.535Z,56.30
2019-04-28T12:58:52.217Z,55.80
2019-04-28T13:01:25.883Z,54.90
2019-04-28T13:03:59.602Z,54.30
2019-04-28T13:06:33.393Z,53.50
2019-04-28T13:09:07.847Z,52.50
2019-04-28T13:11:41.497Z,52.20
2019-04-28T13:14:15.187Z,51.00
2019-04-28T13:16:48.887Z,50.10
2019-04-28T13:19:22.786Z,50.00
2019-04-28T13:21:56.639Z,50.00
2019-04-28T13:24:30.309Z,49.80
2019-04-28T13:27:04.166Z,49.90
2019-04-28T13:29:37.829Z,50.20
2019-04-28T13:32:11.552Z,50.20
2019-04-28T13:34:45.186Z,50.80
2019-04-28T13:37:18.782Z,51.20
2019-04-28T13:39:52.541Z,51.20
2019-04-28T13:42:26.262Z,51.60
2019-04-28T13:45:00.036Z,51.50
2019-04-28T13:47:33.778Z,51.50
2019-04-28T13:50:11.123Z,51.20
2019-04-28T13:52:44.786Z,50.80
2019-04-28T13:55:18.666Z,50.90
2019-04-28T13:57:52.401Z,50.90
2019-04-28T14:00:26.324Z,50.40
2019-04-28T14:03:00.002Z,50.00
2019-04-28T14:05:33.782Z,50.20
2019-04-28T14:08:07.441Z,50.20
2019-04-28T14:10:41.163Z,50.20
2019-04-28T14:13:14.999Z,50.20
2019-04-28T14:15:48.837Z,50.10
2019-04-28T14:18:22.593Z,49.90
2019-04-28T14:20:56.470Z,49.70
2019-04-28T14:23:30.113Z,49.50
2019-04-28T14:26:03.846Z,48.80
2019-04-28T14:28:37.613Z,49.20
2019-04-28T14:31:11.240Z,49.50
2019-04-28T14:33:44.928Z,50.00
2019-04-28T14:36:18.639Z,49.20
2019-04-28T14:38:52.547Z,48.80
2019-04-28T14:41:26.205Z,48.70
2019-04-28T14:43:59.866Z,48.50
2019-04-28T14:46:33.715Z,48.30
2019-04-28T14:49:07.605Z,48.10
2019-04-28T14:51:41.231Z,47.90
2019-04-28T14:54:14.924Z,48.00
2019-04-28T14:56:48.570Z,48.20
2019-04-28T14:59:22.180Z,48.20
2019-04-28T15:01:55.891Z,48.20
2019-04-28T15:04:29.550Z,48.40
2019-04-28T15:07:03.344Z,48.40
2019-04-28T15:09:37.058Z,47.80
2019-04-28T15:12:10.819Z,47.30
2019-04-28T15:14:45.515Z,47.40
2019-04-28T15:17:19.343Z,47.20
2019-04-28T15:19:53.034Z,46.90
2019-04-28T15:22:26.657Z,46.70
2019-04-28T15:25:00.272Z,46.10
2019-04-28T15:27:33.968Z,46.50
2019-04-28T15:30:08.688Z,46.50
2019-04-28T15:32:42.883Z,46.30
2019-04-28T15:35:16.667Z,46.10
2019-04-28T15:37:50.272Z,46.00
2019-04-28T15:40:23.849Z,46.00
2019-04-28T15:42:57.625Z,45.90
2019-04-28T15:45:31.318Z,45.80
2019-04-28T15:48:05.159Z,46.00
2019-04-28T15:50:38.878Z,45.90
2019-04-28T15:53:12.678Z,45.90
2019-04-28T15:55:46.350Z,46.10
2019-04-28T15:58:20.041Z,46.20
2019-04-28T16:00:53.700Z,46.50
2019-04-28T16:03:27.458Z,46.50
2019-04-28T16:06:01.312Z,46.40
2019-04-28T16:08:35.110Z,46.50
2019-04-28T16:11:08.677Z,46.70
2019-04-28T16:13:42.380Z,46.90
2019-04-28T16:16:16.007Z,46.80
2019-04-28T16:18:49.720Z,46.60
2019-04-28T16:21:23.332Z,46.60
2019-04-28T16:23:57.007Z,46.40
2019-04-28T16:26:30.761Z,46.60
2019-04-28T16:29:04.968Z,46.70
2019-04-28T16:31:38.681Z,47.10
2019-04-28T16:34:12.532Z,47.40
2019-04-28T16:36:46.306Z,47.90
2019-04-28T16:39:19.955Z,47.30
2019-04-28T16:41:58.512Z,47.00
2019-04-28T16:44:40.169Z,46.30
2019-04-28T16:47:14.065Z,47.10
2019-04-28T16:49:47.884Z,47.40
2019-04-28T16:52:21.839Z,47.90
2019-04-28T16:54:55.617Z,48.10
2019-04-28T16:57:29.413Z,48.40
2019-04-28T17:00:03.753Z,48.60
2019-04-28T17:02:37.534Z,48.40
2019-04-28T17:05:12.918Z,48.60
2019-04-28T17:07:53.125Z,48.70
2019-04-28T17:10:22.153Z,48.80
2019-04-28T17:12:56.021Z,48.60
2019-04-28T17:15:30.374Z,48.70
2019-04-28T17:18:04.525Z,48.90
2019-04-28T17:20:38.273Z,49.00
2019-04-28T17:23:12.493Z,49.20
2019-04-28T17:25:46.333Z,49.20
2019-04-28T17:28:20.374Z,49.40
2019-04-28T17:30:54.193Z,49.60
2019-04-28T17:33:28.113Z,49.70
2019-04-28T17:36:01.874Z,49.80
2019-04-28T17:38:35.593Z,49.90
2019-04-28T17:41:09.406Z,50.00
2019-04-28T17:43:43.252Z,50.00
2019-04-28T17:46:17.180Z,50.00
2019-04-28T17:48:50.893Z,50.00
2019-04-28T17:51:24.774Z,50.10
2019-04-28T17:53:58.640Z,50.00
2019-04-28T17:56:32.420Z,49.80
2019-04-28T17:59:06.293Z,49.90
2019-04-28T18:01:40.134Z,50.00
2019-04-28T18:04:13.972Z,50.00
2019-04-28T18:06:48.094Z,50.10
2019-04-28T18:09:21.853Z,50.20
2019-04-28T18:11:55.612Z,50.30
2019-04-28T18:14:29.293Z,50.30
2019-04-28T18:17:03.277Z,50.40
2019-04-28T18:19:37.072Z,50.50
2019-04-28T18:22:10.912Z,50.50
2019-04-28T18:24:44.794Z,50.40
2019-04-28T18:27:18.513Z,50.40
2019-04-28T18:29:52.372Z,50.50
2019-04-28T18:32:26.236Z,50.60
2019-04-28T18:34:59.952Z,50.50
2019-04-28T18:37:33.733Z,50.60
2019-04-28T18:40:07.816Z,50.60
2019-04-28T18:42:42.572Z,50.60
2019-04-28T18:45:16.453Z,50.60
2019-04-28T18:47:50.172Z,50.60
2019-04-28T18:50:23.992Z,50.70
2019-04-28T18:52:57.833Z,50.80
2019-04-28T18:55:31.614Z,50.90
2019-04-28T18:58:05.612Z,51.00
2019-04-28T19:00:39.452Z,51.10
2019-04-28T19:03:14.178Z,51.30
2019-04-28T19:05:47.813Z,51.50
2019-04-28T19:08:21.613Z,51.60
2019-04-28T19:10:55.314Z,51.70
2019-04-28T19:13:29.180Z,51.80
2019-04-28T19:16:03.276Z,51.90
2019-04-28T19:18:37.032Z,52.00
2019-04-28T19:21:10.872Z,52.20
2019-04-28T19:23:44.772Z,52.40
2019-04-28T19:26:18.492Z,52.40
2019-04-28T19:28:52.263Z,52.50
2019-04-28T19:31:26.143Z,52.70
2019-04-28T19:33:59.973Z,52.90
2019-04-28T19:36:33.812Z,53.20
2019-04-28T19:39:07.692Z,53.30
2019-04-28T19:41:41.411Z,53.50
2019-04-28T19:44:15.360Z,53.60
2019-04-28T19:46:49.272Z,53.60
2019-04-28T19:49:23.033Z,53.70
2019-04-28T19:51:56.814Z,53.80
2019-04-28T19:54:30.698Z,53.80
2019-04-28T19:57:04.601Z,53.80
2019-04-28T19:59:38.293Z,53.90
2019-04-28T20:02:12.014Z,54.00
2019-04-28T20:04:49.266Z,54.00
2019-04-28T20:07:23.044Z,54.00
2019-04-28T20:09:56.801Z,54.00
2019-04-28T20:12:30.552Z,54.00
2019-04-28T20:15:04.629Z,54.00
2019-04-28T20:17:38.354Z,54.00
2019-04-28T20:20:12.454Z,54.10
2019-04-28T20:22:46.174Z,54.00
2019-04-28T20:25:20.072Z,54.10
2019-04-28T20:27:53.912Z,54.10
2019-04-28T20:30:27.865Z,54.10
2019-04-28T20:33:07.557Z,54.10
2019-04-28T20:35:37.332Z,54.20
2019-04-28T20:38:11.194Z,54.20
2019-04-28T20:40:45.422Z,54.20
2019-04-28T20:43:19.189Z,54.20
2019-04-28T20:45:52.996Z,54.20
2019-04-28T20:48:27.225Z,54.30
2019-04-28T20:51:01.039Z,54.30
2019-04-28T20:53:34.637Z,54.50
2019-04-28T20:56:08.423Z,54.60
2019-04-28T20:58:42.139Z,54.80
2019-04-28T21:01:16.312Z,54.80
2019-04-28T21:03:50.076Z,54.90
2019-04-28T21:06:23.765Z,55.00
2019-04-28T21:08:57.605Z,55.10
2019-04-28T21:11:31.309Z,55.20
2019-04-28T21:14:05.125Z,55.30
2019-04-28T21:16:38.747Z,55.40
2019-04-28T21:19:12.440Z,55.60
2019-04-28T21:21:46.142Z,55.70
2019-04-28T21:24:19.802Z,55.70
2019-04-28T21:26:53.491Z,55.80
2019-04-28T21:29:27.281Z,55.90
2019-04-28T21:32:00.967Z,56.10
2019-04-28T21:34:34.734Z,56.00
2019-04-28T21:37:08.408Z,56.20
2019-04-28T21:39:42.093Z,56.30
2019-04-28T21:42:15.734Z,56.30
2019-04-28T21:44:49.509Z,56.50
2019-04-28T21:47:23.388Z,56.50
2019-04-28T21:49:57.056Z,56.50
2019-04-28T21:52:30.740Z,56.70
2019-04-28T21:55:04.872Z,56.70
2019-04-28T21:57:38.593Z,56.70
2019-04-28T22:00:12.683Z,56.90
2019-04-28T22:02:46.521Z,57.00
2019-04-28T22:05:30.163Z,57.00
2019-04-28T22:07:55.592Z,57.10
2019-04-28T22:10:29.238Z,57.20
2019-04-28T22:13:03.251Z,57.20
2019-04-28T22:15:36.968Z,57.30
2019-04-28T22:18:10.881Z,57.30
2019-04-28T22:20:44.537Z,57.40
2019-04-28T22:23:18.970Z,57.50
2019-04-28T22:25:52.944Z,57.60
2019-04-28T22:28:26.750Z,57.80
2019-04-28T22:31:00.524Z,57.80
2019-04-28T22:33:34.245Z,57.90
2019-04-28T22:36:07.984Z,57.90
2019-04-28T22:38:41.654Z,57.90
2019-04-28T22:41:15.448Z,57.90
2019-04-28T22:43:49.221Z,58.00
2019-04-28T22:46:23.061Z,58.00
2019-04-28T22:48:56.801Z,58.10
2019-04-28T22:51:31.474Z,58.20
2019-04-28T22:54:05.558Z,58.20
2019-04-28T22:56:39.281Z,58.20
2019-04-28T22:59:12.956Z,58.30
2019-04-28T23:01:46.595Z,58.40
2019-04-28T23:04:20.524Z,58.40
2019-04-28T23:06:54.760Z,58.40
2019-04-28T23:09:28.621Z,58.50
2019-04-28T23:12:02.592Z,58.50
2019-04-28T23:14:36.285Z,58.50
2019-04-28T23:17:10.259Z,58.30
2019-04-28T23:19:44.006Z,58.40
2019-04-28T23:22:17.906Z,58.40
2019-04-28T23:24:51.799Z,58.50
2019-04-28T23:27:25.496Z,58.50
2019-04-28T23:29:59.242Z,58.50
2019-04-28T23:32:33.016Z,58.50
2019-04-28T23:35:06.842Z,58.60
2019-04-28T23:37:40.538Z,58.70
2019-04-28T23:40:14.467Z,58.60
2019-04-28T23:42:48.243Z,58.70
2019-04-28T23:45:22.065Z,58.70
2019-04-28T23:47:55.823Z,58.70
2019-04-28T23:50:29.757Z,59.40
2019-04-28T23:53:03.559Z,58.80
2019-04-28T23:55:37.585Z,58.90
2019-04-28T23:58:11.330Z,58.90
